Time;durP1;ratioP1;P1;durP2;ratioP2;P2;SDS_P1;SDS_P2;PMS_P1;PMS_P2;Temp;Humidity;BMP_temperature;BMP_pressure;BME280_temperature;BME280_humidity;BME280_pressure;Samples;Min_cycle;Max_cycle;Signal;HPM_P1;HPM_P2
2023/01/19 05:06:26;;;;;;;0.60;0.60;;;;;;;6.18;87.66;98918.13;5602781;31;167173;-57
2023/01/19 05:09:28;;;;;;;1.45;0.80;;;;;;;6.18;87.66;98918.13;5601913;31;34032;-57
2023/01/19 05:12:31;;;;;;;0.93;0.90;;;;;;;5.89;92.81;98919.00;5603247;31;34302;-57
2023/01/19 05:15:33;;;;;;;1.27;0.85;;;;;;;5.82;91.79;98897.25;5583668;31;34289;-57
2023/01/19 05:18:35;;;;;;;1.12;0.80;;;;;;;5.77;95.48;98899.19;5583654;31;34211;-57
2023/01/19 05:21:38;;;;;;;0.85;0.70;;;;;;;5.73;88.72;98928.22;5583672;32;33529;-56
2023/01/19 05:24:40;;;;;;;0.75;0.68;;;;;;;5.96;93.18;98945.28;5582982;31;34220;-57
2023/01/19 05:27:43;;;;;;;0.85;0.70;;;;;;;5.86;87.75;98961.28;5583523;32;34268;-57
2023/01/19 05:30:45;;;;;;;1.27;0.70;;;;;;;5.73;86.91;98952.16;5583461;32;35130;-57
2023/01/19 05:33:48;;;;;;;1.08;0.70;;;;;;;5.75;86.20;98946.53;5581700;31;33652;-56
2023/01/19 05:36:50;;;;;;;0.73;0.73;;;;;;;5.74;85.81;98956.37;5588671;31;33709;-56
2023/01/19 05:39:53;;;;;;;0.50;0.50;;;;;;;5.81;86.06;98966.69;5587909;31;33194;-57
2023/01/19 05:42:59;;;;;;;0.93;0.70;;;;;;;5.73;83.85;98956.66;5585440;31;34291;-57
2023/01/19 05:46:04;;;;;;;0.77;0.62;;;;;;;6.06;98.69;98944.34;5602911;31;34527;-56
2023/01/19 05:49:06;;;;;;;3.72;0.90;;;;;;;5.99;89.54;98947.34;5602765;31;34261;-57
2023/01/19 05:52:09;;;;;;;0.73;0.73;;;;;;;6.12;88.62;98928.06;5602869;31;34379;-57
2023/01/19 05:55:11;;;;;;;2.33;0.90;;;;;;;6.48;99.15;98937.41;5587495;31;34301;-57
2023/01/19 05:58:13;;;;;;;0.73;0.70;;;;;;;6.56;95.59;98934.91;5582823;31;33593;-57
2023/01/19 06:01:15;;;;;;;0.73;0.73;;;;;;;6.24;86.90;98906.31;5582663;32;33598;-57
2023/01/19 06:04:19;;;;;;;0.80;0.80;;;;;;;6.37;83.47;98896.06;5577681;31;34374;-57
2023/01/19 06:07:22;;;;;;;1.65;1.00;;;;;;;6.26;82.52;98917.50;5573418;31;33728;-57
2023/01/19 06:10:26;;;;;;;0.90;0.90;;;;;;;6.14;84.71;98906.47;5582523;31;33638;-57
2023/01/19 06:13:28;;;;;;;1.05;0.90;;;;;;;6.43;97.93;98913.53;5574742;31;33620;-56
2023/01/19 06:16:31;;;;;;;0.70;0.70;;;;;;;6.28;84.38;98893.22;5559878;32;33687;-57
2023/01/19 06:19:33;;;;;;;0.80;0.80;;;;;;;6.41;89.21;98899.72;5554756;32;32967;-57
2023/01/19 06:22:36;;;;;;;0.95;0.93;;;;;;;6.29;86.51;98903.59;5559835;32;33588;-57
2023/01/19 06:25:38;;;;;;;1.33;0.80;;;;;;;6.27;87.68;98891.66;5561069;32;33161;-58
2023/01/19 06:28:41;;;;;;;1.48;0.80;;;;;;;6.08;83.81;98878.34;5556944;32;34397;-58
2023/01/19 06:31:43;;;;;;;1.67;0.93;;;;;;;6.17;87.75;98881.16;5556722;32;33709;-57
2023/01/19 06:34:46;;;;;;;1.30;0.98;;;;;;;6.04;83.79;98893.31;5560031;32;33228;-56
2023/01/19 06:37:48;;;;;;;1.23;1.00;;;;;;;6.14;85.08;98905.69;5559552;32;33710;-58
2023/01/19 06:40:53;;;;;;;1.65;1.00;;;;;;;5.90;85.02;98933.09;5550799;32;33705;-57
2023/01/19 06:43:55;;;;;;;1.85;1.60;;;;;;;5.98;85.99;98932.47;5556020;32;33733;-57
2023/01/19 06:46:58;;;;;;;1.85;1.27;;;;;;;6.29;89.20;98946.19;5564102;32;33640;-56
2023/01/19 06:50:17;;;;;;;3.28;1.23;;;;;;;6.24;87.01;98942.78;5565669;32;33747;-56
2023/01/19 06:53:21;;;;;;;5.90;1.67;;;;;;;5.91;84.00;98937.31;5555914;32;33828;-57
2023/01/19 06:56:23;;;;;;;3.65;1.92;;;;;;;5.80;87.48;98934.00;5557603;32;33692;-57
2023/01/19 06:59:25;;;;;;;2.33;2.10;;;;;;;5.83;85.24;98932.63;5560447;32;33129;-57
2023/01/19 07:02:28;;;;;;;2.35;1.80;;;;;;;5.81;85.58;98926.81;5551435;32;33701;-56
2023/01/19 07:05:30;;;;;;;2.78;2.17;;;;;;;5.61;85.27;98923.28;5559084;32;34308;-56
2023/01/19 07:08:34;;;;;;;3.87;2.78;;;;;;;5.80;97.24;98918.03;5549227;32;33623;-57
2023/01/19 07:11:36;;;;;;;5.12;3.17;;;;;;;5.85;88.01;98919.81;5552785;32;33620;-56
2023/01/19 07:14:38;;;;;;;3.90;2.90;;;;;;;5.92;88.15;98920.28;5564039;32;33701;-57
2023/01/19 07:17:42;;;;;;;5.70;3.17;;;;;;;5.83;85.62;98912.16;5549742;32;33695;-57
2023/01/19 07:20:45;;;;;;;4.60;3.53;;;;;;;6.16;87.88;98920.28;5549956;32;33791;-57
2023/01/19 07:23:51;;;;;;;3.80;2.80;;;;;;;6.07;86.90;98941.41;5549756;32;31793;-57
2023/01/19 07:26:53;;;;;;;4.78;3.58;;;;;;;6.11;94.08;98950.38;5548598;32;33603;-58
2023/01/19 07:29:56;;;;;;;4.70;3.35;;;;;;;6.04;88.61;98957.94;5567025;32;32136;-57
2023/01/19 07:33:01;;;;;;;5.25;3.60;;;;;;;6.09;86.16;98949.91;5566400;32;33641;-58
2023/01/19 07:36:04;;;;;;;5.12;3.47;;;;;;;5.97;86.07;98944.19;5569035;32;33637;-56
2023/01/19 07:39:06;;;;;;;5.50;3.97;;;;;;;6.23;85.73;98947.34;5568604;32;33656;-56
2023/01/19 07:42:09;;;;;;;5.25;3.72;;;;;;;6.22;88.74;98955.59;5564038;32;35273;-56
2023/01/19 07:45:11;;;;;;;5.50;3.92;;;;;;;6.21;83.46;98954.00;5560392;32;33673;-57
2023/01/19 07:48:13;;;;;;;6.00;3.70;;;;;;;6.02;85.04;98949.44;5549223;32;33682;-57
2023/01/19 07:51:18;;;;;;;5.90;4.07;;;;;;;5.97;86.64;98962.03;5562590;32;33291;-57
2023/01/19 07:54:21;;;;;;;6.20;3.80;;;;;;;6.05;95.68;98958.72;5553999;32;33715;-57
2023/01/19 07:57:23;;;;;;;5.00;3.75;;;;;;;6.29;92.11;98982.63;5561189;32;33632;-57
2023/01/19 08:00:26;;;;;;;5.53;4.15;;;;;;;6.35;86.50;98973.50;5554527;32;33672;-57
2023/01/19 08:03:30;;;;;;;5.78;4.45;;;;;;;6.47;88.19;98979.22;5560090;32;33718;-57
2023/01/19 08:06:34;;;;;;;5.90;4.30;;;;;;;6.47;83.83;98981.88;5556388;32;33713;-57
2023/01/19 08:09:37;;;;;;;5.60;4.20;;;;;;;6.59;88.10;98968.94;5552402;32;33714;-58
2023/01/19 08:12:40;;;;;;;5.55;4.20;;;;;;;6.48;82.86;98974.69;5553276;32;34303;-57
2023/01/19 08:15:52;;;;;;;;;;;;;;;6.35;84.36;98953.00;5556357;32;34296;-57
2023/01/19 08:18:54;;;;;;;5.60;4.03;;;;;;;6.19;82.54;98948.97;5556224;32;34109;-57
2023/01/19 08:21:58;;;;;;;5.68;3.87;;;;;;;6.33;94.40;98957.06;5562689;32;34343;-56
2023/01/19 08:25:00;;;;;;;4.75;3.92;;;;;;;6.29;83.25;98950.69;5550203;31;33674;-57
2023/01/19 08:28:05;;;;;;;5.22;3.80;;;;;;;6.37;83.51;98951.94;5553411;32;33698;-57
2023/01/19 08:31:07;;;;;;;5.30;4.05;;;;;;;6.57;82.11;98960.44;5555640;32;34327;-56
2023/01/19 08:34:23;;;;;;;5.87;4.32;;;;;;;6.25;85.72;98968.31;5560867;31;33728;-56
2023/01/19 08:37:26;;;;;;;6.55;4.30;;;;;;;6.32;82.74;98971.41;5552943;32;33246;-56
2023/01/19 08:40:33;;;;;;;6.90;4.65;;;;;;;6.34;89.91;98963.94;5565125;32;33700;-56
2023/01/19 08:43:36;;;;;;;;;;;;;;;6.49;83.90;98968.25;5550282;32;34290;-57
2023/01/19 08:46:39;;;;;;;6.00;4.90;;;;;;;6.92;89.03;98968.16;5562351;32;33936;-57
2023/01/19 08:49:42;;;;;;;6.03;4.70;;;;;;;6.77;84.08;98970.00;5568117;32;34322;-57
2023/01/19 08:52:44;;;;;;;8.05;5.10;;;;;;;6.72;82.82;98966.59;5555594;32;33618;-57
2023/01/19 08:55:46;;;;;;;7.20;5.28;;;;;;;6.92;89.49;98982.31;5549692;32;33801;-58
2023/01/19 08:58:49;;;;;;;8.07;5.70;;;;;;;6.55;85.46;98973.22;5555922;32;33651;-57
2023/01/19 09:02:09;;;;;;;8.50;5.93;;;;;;;6.47;90.21;98976.56;5559287;32;34291;-56
2023/01/19 09:05:12;;;;;;;9.10;6.85;;;;;;;6.43;85.42;98962.25;5547774;32;34321;-58
2023/01/19 09:08:15;;;;;;;9.90;6.80;;;;;;;6.47;83.19;98965.91;5566646;32;33610;-57
2023/01/19 09:11:18;;;;;;;10.98;7.95;;;;;;;6.29;85.66;98966.66;5558278;32;34408;-57
2023/01/19 09:14:20;;;;;;;10.50;7.50;;;;;;;6.56;86.71;98961.53;5559173;32;33650;-57
2023/01/19 09:17:23;;;;;;;9.98;7.82;;;;;;;6.65;85.56;98958.19;5555473;32;34407;-57
2023/01/19 09:20:25;;;;;;;10.30;7.20;;;;;;;6.66;85.64;98973.13;5551321;32;33640;-57
2023/01/19 09:23:30;;;;;;;10.43;7.00;;;;;;;6.42;85.96;98981.13;5557190;32;33228;-58
2023/01/19 09:26:32;;;;;;;9.23;7.12;;;;;;;6.28;86.90;98987.16;5552934;32;33617;-57
2023/01/19 09:29:35;;;;;;;10.65;7.75;;;;;;;6.08;87.25;98968.78;5547901;32;34275;-57
2023/01/19 09:32:37;;;;;;;10.55;7.28;;;;;;;6.23;87.55;98968.62;5560545;32;33654;-56
2023/01/19 09:35:40;;;;;;;12.70;6.55;;;;;;;6.27;89.39;98971.50;5559802;32;33582;-58
2023/01/19 09:38:43;;;;;;;10.02;6.62;;;;;;;6.37;100.00;98968.69;5563374;32;33871;-57
2023/01/19 09:41:50;;;;;;;8.43;6.50;;;;;;;6.42;86.64;98978.47;5567064;32;34531;-58
2023/01/19 09:44:53;;;;;;;9.07;6.50;;;;;;;6.31;87.55;98975.94;5567215;32;33686;-58
2023/01/19 09:47:58;;;;;;;10.25;6.97;;;;;;;6.23;87.14;98959.84;5548326;32;33165;-57
2023/01/19 09:51:07;;;;;;;10.60;6.50;;;;;;;6.19;87.68;98964.94;5556782;32;33720;-57
2023/01/19 09:54:15;;;;;;;10.10;7.15;;;;;;;6.23;91.24;98979.25;5550565;32;33619;-57
2023/01/19 09:57:17;;;;;;;11.07;7.35;;;;;;;6.42;95.00;98979.25;5550103;32;33563;-57
2023/01/19 10:00:22;;;;;;;10.32;7.95;;;;;;;6.43;90.62;98988.84;5557850;32;35262;-56
2023/01/19 10:03:25;;;;;;;9.43;6.97;;;;;;;6.28;87.07;98984.50;5569637;32;34335;-57
2023/01/19 10:06:28;;;;;;;9.80;6.57;;;;;;;6.14;85.39;98988.94;5568580;32;33382;-57
2023/01/19 10:09:46;;;;;;;9.68;6.70;;;;;;;5.94;86.69;98994.50;5569421;32;33612;-56
2023/01/19 10:13:13;;;;;;;9.82;7.37;;;;;;;6.00;86.22;98999.50;5558519;32;34359;-58
2023/01/19 10:16:24;;;;;;;10.13;7.18;;;;;;;6.11;90.84;99000.94;5558032;32;33648;-57
2023/01/19 10:19:44;;;;;;;10.52;7.40;;;;;;;6.10;89.31;98999.38;5569441;32;34289;-57
2023/01/19 10:22:49;;;;;;;8.27;6.32;;;;;;;6.24;90.66;98998.69;5568739;32;33848;-57
2023/01/19 10:25:53;;;;;;;7.75;6.43;;;;;;;6.05;84.85;99001.28;5567609;32;33804;-57
2023/01/19 10:29:04;;;;;;;8.30;6.00;;;;;;;6.12;85.67;99007.06;5558494;32;33647;-58
2023/01/19 10:32:12;;;;;;;8.05;6.20;;;;;;;6.22;88.03;98998.16;5550215;32;33702;-56
2023/01/19 10:35:22;;;;;;;7.60;5.97;;;;;;;6.20;83.65;99005.66;5549765;32;34400;-56
2023/01/19 10:38:26;;;;;;;9.27;6.80;;;;;;;6.19;97.37;99004.88;5550053;32;33628;-57
2023/01/19 10:41:40;;;;;;;9.18;6.70;;;;;;;6.37;87.68;99011.28;5549734;32;33764;-58
2023/01/19 10:44:44;;;;;;;7.75;5.82;;;;;;;6.47;88.32;99018.34;5549801;32;33653;-57
2023/01/19 10:47:48;;;;;;;7.28;5.60;;;;;;;6.25;87.34;99018.87;5550063;32;34390;-57
2023/01/19 10:51:02;;;;;;;8.40;6.70;;;;;;;6.10;84.81;99019.88;5549801;32;33645;-57
2023/01/19 10:54:12;;;;;;;9.90;7.07;;;;;;;6.18;85.63;99021.88;5550117;32;34327;-57
2023/01/19 10:57:27;;;;;;;11.20;8.18;;;;;;;6.49;94.59;99021.50;5549741;32;33747;-57
2023/01/19 11:00:32;;;;;;;11.32;8.05;;;;;;;6.33;87.25;99021.72;5549673;32;33572;-57
2023/01/19 11:03:34;;;;;;;11.85;9.05;;;;;;;6.30;91.14;99021.50;5549578;32;33332;-57
2023/01/19 11:06:36;;;;;;;11.40;9.00;;;;;;;6.19;88.27;99025.34;5553504;32;33646;-57
2023/01/19 11:09:39;;;;;;;11.60;8.85;;;;;;;6.16;90.27;99028.56;5569193;32;33380;-57
2023/01/19 11:13:02;;;;;;;11.50;8.75;;;;;;;6.14;86.81;99012.09;5568952;32;33675;-57
2023/01/19 11:16:07;;;;;;;11.52;9.55;;;;;;;6.30;85.31;99010.84;5569514;32;34328;-57
2023/01/19 11:19:20;;;;;;;10.13;8.52;;;;;;;6.25;86.60;99019.66;5568820;32;33208;-57
2023/01/19 11:22:27;;;;;;;12.27;8.63;;;;;;;6.19;87.61;99014.69;5568870;32;33323;-57
2023/01/19 11:25:33;;;;;;;9.95;7.90;;;;;;;6.23;85.72;99008.53;5568489;32;33949;-57
2023/01/19 11:28:48;;;;;;;8.25;6.28;;;;;;;6.16;86.60;99009.94;5565404;32;33800;-58
2023/01/19 11:31:51;;;;;;;9.70;6.30;;;;;;;6.19;86.91;99014.69;5568865;32;33883;-57
2023/01/19 11:34:53;;;;;;;7.87;5.62;;;;;;;6.28;85.76;99007.66;5567826;32;34351;-57
2023/01/19 11:38:11;;;;;;;10.65;5.82;;;;;;;6.19;86.48;99028.00;5555097;32;34086;-58
2023/01/19 11:41:40;;;;;;;7.53;5.82;;;;;;;6.20;87.11;99027.72;5557314;32;34477;-57
2023/01/19 11:44:49;;;;;;;7.32;5.97;;;;;;;6.13;87.37;99013.97;5555251;31;33842;-58
2023/01/19 11:47:51;;;;;;;9.77;6.65;;;;;;;6.18;99.29;99015.78;5565579;32;33650;-56
2023/01/19 11:50:58;;;;;;;10.63;7.18;;;;;;;6.29;87.77;99019.88;5567937;32;33737;-58
2023/01/19 11:54:05;;;;;;;9.90;7.82;;;;;;;6.28;96.18;99015.66;5568965;32;33645;-57
2023/01/19 11:57:19;;;;;;;10.00;7.95;;;;;;;6.23;89.52;99029.81;5556750;32;34459;-57
2023/01/19 12:00:24;;;;;;;11.63;8.52;;;;;;;6.38;87.86;99034.16;5568517;32;33748;-56
2023/01/19 12:03:32;;;;;;;10.93;8.02;;;;;;;6.43;86.69;99033.31;5567970;32;33161;-58
2023/01/19 12:06:40;;;;;;;11.80;9.57;;;;;;;6.39;89.41;99042.94;5567120;32;33654;-57
2023/01/19 12:09:46;;;;;;;14.18;10.20;;;;;;;6.33;87.69;99045.66;5556491;32;33676;-57
2023/01/19 12:12:50;;;;;;;;;;;;;;;6.40;89.61;99055.97;5548986;32;34629;-56
2023/01/19 12:16:04;;;;;;;18.20;12.77;;;;;;;6.44;87.08;99054.31;5548406;32;34509;-57
2023/01/19 12:19:17;;;;;;;14.70;11.27;;;;;;;6.33;87.52;99063.50;5565482;32;33741;-57
2023/01/19 12:22:21;;;;;;;14.60;10.95;;;;;;;6.28;89.60;99066.22;5564164;32;33571;-58
2023/01/19 12:25:58;;;;;;;15.30;10.02;;;;;;;6.19;87.63;99073.22;5554125;32;34379;-57
2023/01/19 12:29:12;;;;;;;15.77;11.70;;;;;;;6.30;87.11;99080.84;5551492;32;33645;-57
2023/01/19 12:32:17;;;;;;;15.43;12.18;;;;;;;6.29;87.46;99087.25;5552758;31;33765;-57
2023/01/19 12:35:56;;;;;;;16.45;12.45;;;;;;;6.32;86.72;99086.69;5552499;32;33643;-57
2023/01/19 12:39:05;;;;;;;13.82;10.50;;;;;;;6.15;86.68;99085.53;5534137;32;33817;-57
2023/01/19 12:42:14;;;;;;;14.85;11.10;;;;;;;6.40;96.85;99092.44;5556556;32;33619;-57
2023/01/19 12:45:23;;;;;;;14.13;11.48;;;;;;;6.27;88.78;99088.59;5558220;32;33938;-57
2023/01/19 12:48:26;;;;;;;12.90;10.20;;;;;;;6.21;93.58;99103.03;5551173;32;33868;-57
2023/01/19 12:51:28;;;;;;;13.48;10.85;;;;;;;6.20;90.52;99099.56;5564738;32;33754;-57
2023/01/19 12:54:32;;;;;;;13.70;10.52;;;;;;;6.21;89.82;99108.34;5564489;32;33746;-59
2023/01/19 12:57:39;;;;;;;14.32;11.65;;;;;;;6.11;87.69;99107.38;5552573;32;33700;-57
2023/01/19 13:00:44;;;;;;;12.88;10.48;;;;;;;6.17;86.99;99110.00;5548139;32;34381;-57
2023/01/19 13:04:08;;;;;;;12.30;9.40;;;;;;;6.15;90.26;99122.78;5548017;32;34423;-57
2023/01/19 13:07:15;;;;;;;12.90;9.35;;;;;;;5.86;86.79;99119.03;5565611;32;33664;-57
2023/01/19 13:10:55;;;;;;;12.18;9.82;;;;;;;6.04;88.48;99138.84;5564777;32;34248;-57
2023/01/19 13:13:57;;;;;;;12.65;10.10;;;;;;;6.11;86.35;99154.47;5550435;32;33144;-57
2023/01/19 13:17:03;;;;;;;12.90;10.48;;;;;;;6.06;88.26;99165.97;5554833;32;33703;-57
2023/01/19 13:20:17;;;;;;;13.37;9.77;;;;;;;6.05;87.27;99158.25;5548517;32;33649;-58
2023/01/19 13:23:23;;;;;;;12.65;10.18;;;;;;;5.92;84.38;99166.84;5547988;32;33636;-57
2023/01/19 13:26:52;;;;;;;13.45;11.32;;;;;;;5.94;94.52;99176.16;5549069;32;33685;-57
2023/01/19 13:29:54;;;;;;;14.27;11.55;;;;;;;5.93;96.97;99176.44;5549975;32;33767;-57
2023/01/19 13:33:05;;;;;;;14.38;11.30;;;;;;;5.81;86.52;99176.78;5550589;32;34235;-58
2023/01/19 13:36:19;;;;;;;13.57;11.50;;;;;;;5.87;87.50;99188.97;5570159;32;33880;-56
2023/01/19 13:39:27;;;;;;;15.00;12.02;;;;;;;5.93;86.85;99184.41;5569436;32;34506;-56
2023/01/19 13:42:35;;;;;;;14.45;11.60;;;;;;;5.84;90.01;99200.16;5567894;32;33775;-57
2023/01/19 13:45:40;;;;;;;14.90;11.70;;;;;;;5.94;92.22;99209.97;5566023;32;33647;-57
2023/01/19 13:48:54;;;;;;;12.07;10.63;;;;;;;5.84;86.45;99221.44;5560590;32;33873;-56
2023/01/19 13:52:19;;;;;;;14.63;11.75;;;;;;;5.91;86.66;99211.28;5557130;32;33200;-57
2023/01/19 13:55:22;;;;;;;14.85;12.15;;;;;;;5.78;85.83;99217.22;5550285;32;33339;-57
2023/01/19 13:58:26;;;;;;;13.70;11.10;;;;;;;5.83;86.74;99220.66;5550572;32;34404;-58
2023/01/19 14:01:29;;;;;;;14.85;11.88;;;;;;;5.78;85.54;99225.19;5550641;31;33853;-58
2023/01/19 14:04:32;;;;;;;14.65;11.40;;;;;;;5.67;84.87;99236.97;5565252;31;34299;-56
2023/01/19 14:07:35;;;;;;;14.68;10.48;;;;;;;5.45;84.08;99237.34;5569836;32;33579;-56
2023/01/19 14:11:01;;;;;;;14.57;11.35;;;;;;;5.34;85.70;99226.00;5570207;32;34323;-56
2023/01/19 14:14:03;;;;;;;13.80;10.75;;;;;;;5.23;86.44;99214.63;5569917;32;33664;-56
2023/01/19 14:17:20;;;;;;;12.60;9.95;;;;;;;5.24;86.04;99215.41;5569781;32;34391;-56
2023/01/19 14:20:28;;;;;;;13.25;10.05;;;;;;;5.19;85.50;99218.88;5570216;32;34465;-57
2023/01/19 14:24:06;;;;;;;14.70;10.75;;;;;;;5.24;86.32;99221.53;5569470;32;33619;-56
2023/01/19 14:27:21;;;;;;;14.15;11.35;;;;;;;5.26;85.59;99226.56;5539373;32;34010;-56
2023/01/19 14:30:27;;;;;;;13.43;10.03;;;;;;;5.44;90.27;99225.94;5569076;32;34394;-58
2023/01/19 14:33:35;;;;;;;13.23;9.90;;;;;;;5.49;85.79;99233.06;5569343;32;33681;-56
2023/01/19 14:36:40;;;;;;;14.63;10.23;;;;;;;5.43;86.77;99245.63;5554933;32;34756;-56
2023/01/19 14:39:45;;;;;;;12.63;9.68;;;;;;;5.51;85.78;99249.56;5569431;32;33776;-56
2023/01/19 14:42:52;;;;;;;13.27;10.52;;;;;;;5.67;84.65;99239.63;5569582;32;33677;-56
2023/01/19 14:45:55;;;;;;;;;;;;;;;5.60;84.44;99254.03;5570004;32;33747;-57
2023/01/19 14:49:01;;;;;;;13.93;10.15;;;;;;;5.63;87.72;99263.31;5569552;32;33959;-57
2023/01/19 14:52:15;;;;;;;14.90;10.90;;;;;;;5.72;92.96;99266.19;5569859;32;33880;-57
2023/01/19 14:55:27;;;;;;;14.80;10.48;;;;;;;5.65;85.29;99267.28;5569328;32;34330;-57
2023/01/19 14:58:32;;;;;;;15.02;11.55;;;;;;;5.70;83.47;99282.44;5568657;32;33669;-56
2023/01/19 15:01:37;;;;;;;15.55;11.68;;;;;;;5.61;83.59;99276.87;5569561;32;34393;-56
2023/01/19 15:04:40;;;;;;;15.73;11.35;;;;;;;5.69;91.67;99311.94;5569106;32;33715;-57
2023/01/19 15:07:45;;;;;;;13.98;10.98;;;;;;;5.70;86.05;99335.59;5568673;32;33645;-57
2023/01/19 15:10:47;;;;;;;14.40;11.10;;;;;;;5.67;83.26;99338.03;5569242;32;34623;-57
2023/01/19 15:13:50;;;;;;;17.48;12.60;;;;;;;5.72;82.54;99327.34;5568602;32;33678;-57
2023/01/19 15:16:52;;;;;;;18.62;12.50;;;;;;;5.54;82.88;99323.44;5569346;32;34401;-57
2023/01/19 15:19:55;;;;;;;16.10;12.15;;;;;;;5.72;84.76;99309.53;5569345;32;33657;-56
2023/01/19 15:22:57;;;;;;;16.20;12.55;;;;;;;5.63;81.47;99313.84;5569016;32;34228;-56
2023/01/19 15:26:02;;;;;;;16.10;12.80;;;;;;;5.75;81.34;99311.62;5569373;32;34400;-56
2023/01/19 15:29:23;;;;;;;17.12;13.20;;;;;;;5.58;81.10;99309.31;5568764;32;34060;-56
2023/01/19 15:32:25;;;;;;;18.48;13.27;;;;;;;5.29;82.43;99325.13;5569311;32;33591;-57
2023/01/19 15:35:27;;;;;;;17.10;13.00;;;;;;;5.18;82.52;99331.53;5569422;32;33996;-57
2023/01/19 15:38:30;;;;;;;17.98;12.55;;;;;;;5.08;82.50;99342.97;5569318;32;33755;-56
2023/01/19 15:41:32;;;;;;;19.85;13.48;;;;;;;5.17;84.14;99352.00;5569325;32;33967;-57
2023/01/19 15:44:35;;;;;;;17.77;13.80;;;;;;;5.04;82.43;99354.44;5569403;32;33725;-56
2023/01/19 15:47:37;;;;;;;18.25;13.13;;;;;;;4.94;82.48;99342.75;5555647;32;33823;-56
2023/01/19 15:50:41;;;;;;;18.35;13.73;;;;;;;5.08;81.83;99345.63;5566938;32;34404;-56
2023/01/19 15:53:44;;;;;;;19.08;14.13;;;;;;;4.89;84.02;99353.34;5553753;32;34606;-57
2023/01/19 15:56:46;;;;;;;18.75;13.27;;;;;;;4.99;85.37;99363.19;5549556;32;34580;-56
2023/01/19 15:59:50;;;;;;;21.98;15.73;;;;;;;4.91;83.40;99377.00;5549677;32;33660;-56
2023/01/19 16:02:52;;;;;;;19.92;15.10;;;;;;;4.98;83.86;99387.38;5549493;32;34356;-56
2023/01/19 16:05:59;;;;;;;20.55;14.50;;;;;;;4.87;82.12;99400.66;5549162;32;33759;-57
2023/01/19 16:09:02;;;;;;;20.62;14.18;;;;;;;5.03;86.97;99396.09;5549332;32;33705;-57
2023/01/19 16:12:05;;;;;;;22.00;15.13;;;;;;;5.01;83.90;99397.47;5549604;32;33898;-56
2023/01/19 16:15:07;;;;;;;24.77;15.75;;;;;;;5.19;84.97;99399.53;5549248;32;33809;-57
2023/01/19 16:18:10;;;;;;;21.30;15.73;;;;;;;5.28;86.69;99413.09;5549701;32;34456;-57
2023/01/19 16:21:13;;;;;;;21.12;14.00;;;;;;;5.41;80.77;99431.13;5549366;32;33643;-57
2023/01/19 16:24:15;;;;;;;20.45;14.38;;;;;;;5.53;91.82;99442.28;5549727;32;34365;-56
2023/01/19 16:27:17;;;;;;;19.58;14.18;;;;;;;5.39;83.62;99443.88;5549118;32;34249;-57
2023/01/19 16:30:20;;;;;;;20.98;14.18;;;;;;;5.38;80.28;99458.25;5549452;32;34185;-56
2023/01/19 16:33:22;;;;;;;22.37;15.27;;;;;;;5.14;80.09;99455.34;5549382;32;34377;-56
2023/01/19 16:36:30;;;;;;;22.02;14.60;;;;;;;5.54;89.70;99474.97;5549484;32;33670;-56
2023/01/19 16:39:32;;;;;;;23.02;15.23;;;;;;;5.70;97.45;99476.53;5549389;32;33710;-56
2023/01/19 16:42:35;;;;;;;20.83;15.32;;;;;;;5.64;80.11;99489.03;5549233;32;34459;-56
